Time;durP1;ratioP1;P1;durP2;ratioP2;P2;SDS_P1;SDS_P2;PMS_P1;PMS_P2;Temp;Humidity;BMP_temperature;BMP_pressure;BME280_temperature;BME280_humidity;BME280_pressure;Samples;Min_cycle;Max_cycle;Signal;HPM_P1;HPM_P2
2023/08/19 00:04:20;;;;;;;11.80;9.35;;;;;;;20.89;97.31;153955.06;10631051;27;20090;-73
2023/08/19 00:09:22;;;;;;;9.40;8.70;;;;;;;20.78;98.26;153926.50;10611536;27;20047;-72
2023/08/19 00:14:23;;;;;;;9.77;9.18;;;;;;;20.87;97.07;153949.91;10629647;27;20039;-72
2023/08/19 00:19:25;;;;;;;11.90;10.90;;;;;;;21.10;95.87;154008.41;10630525;27;20459;-72
2023/08/19 00:24:27;;;;;;;11.77;10.95;;;;;;;20.93;97.54;153965.50;10629192;27;20049;-71
2023/08/19 00:29:28;;;;;;;11.15;10.27;;;;;;;20.98;96.81;153977.19;10629339;27;20059;-71
2023/08/19 00:34:33;;;;;;;11.23;10.40;;;;;;;20.74;98.95;153917.38;10610759;27;20548;-72
2023/08/19 00:39:35;;;;;;;10.40;9.60;;;;;;;20.85;97.26;153944.66;10610150;27;20066;-72
2023/08/19 00:44:36;;;;;;;11.10;10.10;;;;;;;21.00;95.98;153983.72;10610199;27;20150;-73
2023/08/19 00:49:38;;;;;;;11.45;10.65;;;;;;;20.74;97.60;153916.09;10609618;27;20055;-71
2023/08/19 00:54:40;;;;;;;11.60;10.80;;;;;;;20.49;99.51;153853.66;10609779;27;20043;-71
2023/08/19 00:59:44;;;;;;;11.18;10.38;;;;;;;20.32;100.00;153810.72;10610785;27;20043;-73
2023/08/19 01:04:45;;;;;;;10.07;9.48;;;;;;;20.52;99.36;153861.47;10610291;27;20067;-73
2023/08/19 01:10:00;;;;;;;11.63;10.68;;;;;;;20.62;96.90;153887.44;10609845;27;20485;-72
2023/08/19 01:15:07;;;;;;;11.93;11.13;;;;;;;20.40;97.92;153830.19;10628199;27;20114;-74
2023/08/19 01:20:11;;;;;;;13.02;12.02;;;;;;;19.90;100.00;153702.81;10608788;27;20043;-73
2023/08/19 01:25:13;;;;;;;14.18;12.98;;;;;;;19.99;100.00;153724.91;10627399;27;20404;-73
2023/08/19 01:30:15;;;;;;;14.18;13.07;;;;;;;20.20;100.00;153778.22;10627683;27;20039;-74
2023/08/19 01:35:17;;;;;;;12.52;11.68;;;;;;;20.33;99.14;153812.03;10627274;27;20035;-75
2023/08/19 01:40:22;;;;;;;13.40;12.05;;;;;;;19.93;100.00;153709.34;10626374;27;20050;-74
2023/08/19 01:45:25;;;;;;;13.13;12.23;;;;;;;19.95;100.00;153714.50;10627816;27;20043;-74
2023/08/19 01:50:30;;;;;;;12.30;11.40;;;;;;;19.89;100.00;153700.22;10607857;27;20043;-74
2023/08/19 01:55:32;;;;;;;11.70;10.88;;;;;;;19.74;100.00;153661.22;10607782;27;20095;-74
2023/08/19 02:00:34;;;;;;;12.43;11.43;;;;;;;19.67;100.00;153643.03;10607238;27;20043;-74
2023/08/19 02:05:35;;;;;;;13.50;12.48;;;;;;;19.86;100.00;153692.41;10626750;27;20062;-74
2023/08/19 02:10:37;;;;;;;11.68;10.88;;;;;;;19.78;100.00;153671.59;10607445;27;20092;-74
2023/08/19 02:15:40;;;;;;;12.88;11.93;;;;;;;19.84;100.00;153688.53;10607367;27;20043;-75
2023/08/19 02:20:47;;;;;;;12.05;11.15;;;;;;;20.00;100.00;153728.78;10606916;27;20043;-74
2023/08/19 02:25:51;;;;;;;13.48;12.27;;;;;;;19.75;100.00;153663.84;10606351;27;20043;-74
2023/08/19 02:30:53;;;;;;;12.80;11.90;;;;;;;19.53;100.00;153607.91;10624820;27;20047;-74
2023/08/19 02:35:55;;;;;;;13.30;12.10;;;;;;;19.48;100.00;153594.88;10625376;27;20088;-73
2023/08/19 02:40:57;;;;;;;13.07;12.07;;;;;;;19.53;100.00;153607.91;10626003;28;20450;-75
2023/08/19 02:45:59;;;;;;;14.15;12.95;;;;;;;19.48;100.00;153594.88;10606804;28;20104;-74
2023/08/19 02:51:00;;;;;;;14.35;13.13;;;;;;;19.48;100.00;153596.22;10625246;28;20066;-75
2023/08/19 02:56:06;;;;;;;14.75;13.65;;;;;;;19.47;100.00;153593.59;10606049;28;20070;-74
2023/08/19 03:01:12;;;;;;;15.30;14.00;;;;;;;19.46;100.00;153591.00;10624255;28;20031;-74
2023/08/19 03:06:14;;;;;;;13.75;12.52;;;;;;;19.47;100.00;153593.59;10625630;28;20063;-74
2023/08/19 03:11:15;;;;;;;14.10;13.00;;;;;;;19.24;100.00;153535.13;10624062;28;20047;-74
2023/08/19 03:16:17;;;;;;;13.25;11.90;;;;;;;19.04;100.00;153483.19;10625634;27;20088;-74
2023/08/19 03:21:19;;;;;;;12.43;11.52;;;;;;;19.13;100.00;153506.56;10632380;27;20066;-74
2023/08/19 03:26:21;;;;;;;13.80;12.70;;;;;;;18.96;100.00;153462.41;10615447;27;20045;-74
2023/08/19 03:31:23;;;;;;;12.98;12.02;;;;;;;18.98;100.00;153468.88;10596326;27;20130;-74
2023/08/19 03:36:25;;;;;;;13.40;12.45;;;;;;;19.08;100.00;153493.53;10612906;27;20552;-74
2023/08/19 03:41:27;;;;;;;14.35;13.18;;;;;;;18.90;100.00;153448.06;10631879;27;20500;-74
2023/08/19 03:46:32;;;;;;;13.40;12.40;;;;;;;18.78;100.00;153416.94;10613539;27;20492;-74
2023/08/19 03:51:33;;;;;;;14.43;13.35;;;;;;;18.93;100.00;153455.88;10614482;27;20082;-74
2023/08/19 03:56:35;;;;;;;13.20;12.05;;;;;;;19.05;100.00;153485.78;10613511;27;20130;-74
2023/08/19 04:01:39;;;;;;;13.82;12.65;;;;;;;18.96;100.00;153463.69;10631651;27;20035;-74
2023/08/19 04:06:41;;;;;;;14.70;13.55;;;;;;;18.99;100.00;153471.50;10631318;27;20518;-75
2023/08/19 04:11:43;;;;;;;13.57;12.50;;;;;;;18.96;100.00;153462.41;10612236;27;20062;-74
2023/08/19 04:16:45;;;;;;;14.38;13.23;;;;;;;18.77;100.00;153415.66;10611028;27;20047;-75
2023/08/19 04:21:46;;;;;;;14.57;13.27;;;;;;;18.78;100.00;153416.94;10611425;27;20039;-74
2023/08/19 04:26:48;;;;;;;13.80;12.77;;;;;;;19.08;100.00;153494.88;10629730;27;20058;-75
2023/08/19 04:31:51;;;;;;;13.73;12.63;;;;;;;19.07;100.00;153492.25;10611746;27;20115;-74
2023/08/19 04:36:53;;;;;;;13.70;12.70;;;;;;;18.98;100.00;153467.56;10611241;27;20047;-74
2023/08/19 04:41:55;;;;;;;15.80;14.60;;;;;;;18.98;100.00;153468.88;10611966;27;20411;-73
2023/08/19 04:46:59;;;;;;;15.48;14.25;;;;;;;19.12;100.00;153505.28;10610674;27;20070;-73
2023/08/19 04:52:04;;;;;;;14.13;13.02;;;;;;;19.02;100.00;153479.25;10594428;27;20078;-74
2023/08/19 04:57:06;;;;;;;14.82;13.73;;;;;;;19.02;100.00;153477.97;10593543;27;20493;-74
2023/08/19 05:02:08;;;;;;;14.50;13.40;;;;;;;19.16;100.00;153515.63;10610884;27;20138;-74
2023/08/19 05:07:09;;;;;;;16.35;15.07;;;;;;;19.55;100.00;153613.09;10629716;27;20035;-75
2023/08/19 05:12:11;;;;;;;15.38;14.07;;;;;;;19.57;100.00;153618.31;10609044;27;20043;-74
2023/08/19 05:17:15;;;;;;;16.73;15.05;;;;;;;19.45;100.00;153588.41;10609110;27;20035;-74
2023/08/19 05:22:16;;;;;;;14.63;13.43;;;;;;;19.50;100.00;153601.41;10609411;27;20062;-74
2023/08/19 05:27:18;;;;;;;13.45;12.45;;;;;;;19.77;100.00;153669.03;10627206;27;20043;-70
2023/08/19 05:32:20;;;;;;;11.00;10.23;;;;;;;20.01;100.00;153731.44;10627385;27;20043;-70
2023/08/19 05:37:22;;;;;;;12.25;11.45;;;;;;;20.20;100.00;153779.53;10627702;27;20031;-70
2023/08/19 05:42:23;;;;;;;12.70;11.80;;;;;;;20.39;100.00;153827.59;10626244;27;20117;-71
2023/08/19 05:47:25;;;;;;;10.20;9.50;;;;;;;20.58;99.52;153875.75;10625972;27;20123;-70
2023/08/19 05:52:27;;;;;;;8.93;8.32;;;;;;;20.89;96.96;153955.06;10625843;27;20044;-70
2023/08/19 05:57:28;;;;;;;8.50;8.00;;;;;;;21.12;94.58;154013.66;10625629;27;20077;-70
2023/08/19 06:02:31;;;;;;;8.32;7.63;;;;;;;21.55;93.55;154124.25;10625904;27;20054;-70
2023/08/19 06:07:33;;;;;;;7.30;6.80;;;;;;;22.23;87.50;154297.41;10625781;27;20035;-72
2023/08/19 06:12:35;;;;;;;7.53;6.90;;;;;;;22.78;82.23;154438.00;10625181;27;20057;-73
2023/08/19 06:17:37;;;;;;;7.30;6.75;;;;;;;23.29;79.89;154568.31;10624555;27;20035;-73
2023/08/19 06:22:39;;;;;;;6.45;6.05;;;;;;;23.67;78.06;154664.75;10624533;27;20035;-73
2023/08/19 06:27:41;;;;;;;7.40;6.90;;;;;;;24.29;73.74;154823.72;10624860;27;20415;-72
2023/08/19 06:32:43;;;;;;;7.57;7.07;;;;;;;24.61;74.01;154904.59;10625105;27;20054;-72
2023/08/19 06:37:50;;;;;;;6.40;6.00;;;;;;;25.00;70.87;155003.69;10625084;27;20062;-73
2023/08/19 06:42:52;;;;;;;7.25;6.75;;;;;;;25.12;72.63;155036.34;10623934;28;20043;-73
2023/08/19 06:47:57;;;;;;;6.22;5.82;;;;;;;25.21;70.81;155058.50;10606242;28;20122;-72
2023/08/19 06:52:59;;;;;;;6.43;6.03;;;;;;;25.47;71.09;155125.03;10631583;27;20131;-73
2023/08/19 06:58:05;;;;;;;6.70;6.03;;;;;;;25.22;70.05;155061.09;10610648;27;20417;-73
2023/08/19 07:03:08;;;;;;;6.10;5.60;;;;;;;25.64;67.52;155169.38;10589182;28;20457;-73
2023/08/19 07:08:12;;;;;;;6.78;6.35;;;;;;;25.90;67.08;155234.69;10590190;28;20039;-73
2023/08/19 07:13:14;;;;;;;6.30;5.68;;;;;;;25.75;67.65;155196.75;10592145;28;20036;-77
2023/08/19 07:18:20;;;;;;;5.60;5.30;;;;;;;25.84;67.95;155219.00;10591121;28;20032;-71
2023/08/19 07:23:23;;;;;;;6.70;6.20;;;;;;;26.13;66.22;155294.69;10590158;28;20048;-72
2023/08/19 07:28:26;;;;;;;7.05;6.55;;;;;;;26.05;67.28;155272.50;10589188;28;20039;-72
2023/08/19 07:33:27;;;;;;;6.28;5.78;;;;;;;26.27;64.82;155329.91;10610433;27;20043;-72
2023/08/19 07:38:29;;;;;;;6.15;5.68;;;;;;;26.43;66.31;155370.38;10631444;27;20400;-73
2023/08/19 07:43:31;;;;;;;6.35;5.80;;;;;;;26.73;64.13;155447.41;10649914;27;20043;-72
2023/08/19 07:48:33;;;;;;;6.10;5.60;;;;;;;26.81;62.89;155468.28;10638184;27;20461;-71
2023/08/19 07:53:34;;;;;;;6.40;5.97;;;;;;;26.77;62.31;155457.84;10631729;27;20047;-72
2023/08/19 07:58:36;;;;;;;6.82;6.43;;;;;;;26.84;63.30;155474.84;10656909;27;20142;-72
2023/08/19 08:03:39;;;;;;;5.70;5.38;;;;;;;26.66;64.10;155430.47;10674677;27;20042;-73
2023/08/19 08:08:41;;;;;;;5.88;5.50;;;;;;;26.96;63.75;155506.19;10641439;27;20048;-72
2023/08/19 08:13:43;;;;;;;5.40;5.00;;;;;;;27.32;62.33;155597.63;10630948;27;20122;-73
2023/08/19 08:18:44;;;;;;;6.40;5.97;;;;;;;27.51;61.74;155647.22;10630511;27;20043;-71
2023/08/19 08:23:47;;;;;;;6.50;5.88;;;;;;;27.39;63.67;155617.19;10631872;27;20043;-72
2023/08/19 08:28:49;;;;;;;5.78;5.38;;;;;;;27.82;60.69;155725.63;10634284;27;20070;-72
2023/08/19 08:33:51;;;;;;;5.38;4.97;;;;;;;27.87;60.11;155738.69;10636852;27;20130;-72
2023/08/19 08:38:53;;;;;;;6.13;5.82;;;;;;;28.10;58.71;155797.47;10637399;27;20051;-73
2023/08/19 08:43:58;;;;;;;6.47;5.93;;;;;;;28.09;59.23;155796.16;10636738;27;20451;-75
2023/08/19 08:49:01;;;;;;;5.50;5.10;;;;;;;28.38;57.98;155870.72;10635369;27;20350;-75
2023/08/19 08:54:05;;;;;;;5.22;4.68;;;;;;;28.76;57.40;155966.06;10631950;27;20111;-75
2023/08/19 08:59:07;;;;;;;5.20;4.90;;;;;;;29.02;55.54;156034.09;10631190;27;20396;-74
2023/08/19 09:04:11;;;;;;;4.97;4.68;;;;;;;29.28;55.29;156100.75;10629881;27;20043;-74
2023/08/19 09:09:14;;;;;;;4.17;3.87;;;;;;;29.72;50.69;156213.25;10630137;27;20061;-74
2023/08/19 09:14:40;;;;;;;4.55;4.15;;;;;;;30.03;49.66;156293.00;10629108;27;20042;-75
2023/08/19 09:19:43;;;;;;;4.35;4.05;;;;;;;29.99;48.92;156282.53;10631528;27;20504;-74
2023/08/19 09:24:45;;;;;;;4.25;3.95;;;;;;;30.50;46.56;156412.06;10615395;27;20047;-75
2023/08/19 09:29:52;;;;;;;3.85;3.65;;;;;;;30.39;46.30;156384.59;10634435;27;20039;-74
2023/08/19 09:35:07;;;;;;;4.82;3.80;;;;;;;30.68;46.04;156459.19;10632579;27;20111;-74
2023/08/19 09:40:15;;;;;;;3.83;3.63;;;;;;;31.23;45.17;156599.22;10611168;27;20043;-75
2023/08/19 09:45:22;;;;;;;3.83;3.60;;;;;;;31.99;42.12;156795.66;10629345;27;20400;-75
2023/08/19 09:50:24;;;;;;;3.13;2.92;;;;;;;32.56;42.69;156941.03;10633750;27;20138;-77
2023/08/19 09:55:28;;;;;;;3.83;3.47;;;;;;;32.89;40.80;157027.50;10635247;27;20039;-76
2023/08/19 10:00:30;;;;;;;3.20;3.00;;;;;;;33.58;39.47;157204.44;10616733;27;20070;-76
2023/08/19 10:05:41;;;;;;;4.10;3.10;;;;;;;34.33;39.16;157395.81;10640516;27;20066;-76
2023/08/19 10:10:45;;;;;;;2.83;2.63;;;;;;;34.47;38.02;157431.25;10636681;27;20043;-74
2023/08/19 10:15:48;;;;;;;;;;;;;;;34.99;35.82;157565.03;10635734;27;20034;-75
2023/08/19 10:20:53;;;;;;;3.35;2.70;;;;;;;35.16;36.16;157609.63;10636932;27;20388;-75
2023/08/19 10:25:56;;;;;;;4.13;3.13;;;;;;;34.93;38.60;157550.56;10633880;27;20062;-76
2023/08/19 10:31:15;;;;;;;2.97;2.78;;;;;;;35.08;34.97;157588.63;10617070;27;20047;-74
2023/08/19 10:36:19;;;;;;;3.13;2.80;;;;;;;34.52;37.54;157444.34;10618297;27;20077;-74
2023/08/19 10:41:35;;;;;;;3.40;2.80;;;;;;;35.23;37.31;157626.63;10637046;27;20504;-74
2023/08/19 10:46:47;;;;;;;3.33;3.13;;;;;;;35.47;35.19;157688.34;10635019;28;20031;-75
2023/08/19 10:52:06;;;;;;;2.88;2.78;;;;;;;36.42;35.92;157933.69;10634577;28;20040;-75
2023/08/19 10:57:16;;;;;;;3.25;2.90;;;;;;;36.01;34.55;157827.44;10636020;28;20049;-74
2023/08/19 11:02:18;;;;;;;3.00;2.80;;;;;;;35.65;34.64;157734.25;10634464;28;20035;-75
2023/08/19 11:07:21;;;;;;;2.78;2.55;;;;;;;35.90;34.65;157799.81;10636131;28;20061;-75
2023/08/19 11:12:26;;;;;;;2.90;2.63;;;;;;;35.67;34.09;157740.78;10613859;28;20047;-76
2023/08/19 11:17:32;;;;;;;4.03;2.85;;;;;;;34.98;35.13;157563.72;10630751;28;20035;-75
2023/08/19 11:22:48;;;;;;;3.55;3.25;;;;;;;35.19;35.65;157617.44;10636034;28;20099;-73
2023/08/19 11:27:51;;;;;;;3.22;2.95;;;;;;;35.43;34.88;157677.81;10635145;28;20048;-73
2023/08/19 11:32:55;;;;;;;3.15;2.95;;;;;;;35.53;35.53;157704.06;10634398;28;20451;-74
2023/08/19 11:37:57;;;;;;;3.03;2.90;;;;;;;35.93;34.47;157806.38;10614887;27;20060;-72
2023/08/19 11:43:09;;;;;;;3.13;2.92;;;;;;;35.56;34.79;157713.25;10620906;27;20043;-74
2023/08/19 11:48:15;;;;;;;3.05;2.80;;;;;;;35.70;34.14;157747.38;10639964;27;20062;-74
2023/08/19 11:53:28;;;;;;;3.55;3.20;;;;;;;35.98;34.00;157819.53;10640969;27;20066;-74
2023/08/19 11:58:56;;;;;;;5.30;2.77;;;;;;;36.10;34.38;157852.34;10640649;27;20048;-74
2023/08/19 12:04:01;;;;;;;3.22;2.97;;;;;;;35.43;37.02;157677.81;10636373;27;20043;-73
2023/08/19 12:09:04;;;;;;;3.92;3.20;;;;;;;34.87;35.60;157534.81;10636857;27;20122;-74
2023/08/19 12:14:07;;;;;;;3.33;3.13;;;;;;;34.80;36.29;157517.78;10613912;27;20134;-73
2023/08/19 12:19:09;;;;;;;3.30;2.97;;;;;;;34.01;36.38;157313.25;10613032;27;20082;-72
2023/08/19 12:24:11;;;;;;;2.85;2.65;;;;;;;34.07;37.06;157328.97;10632924;27;20043;-72
2023/08/19 12:29:12;;;;;;;3.20;2.90;;;;;;;33.44;37.55;157167.75;10634042;27;20055;-73
2023/08/19 12:34:16;;;;;;;2.92;2.72;;;;;;;32.83;38.48;157010.44;10632699;27;20074;-74
2023/08/19 12:39:17;;;;;;;3.03;2.83;;;;;;;33.63;38.20;157216.22;10612810;27;20475;-72
2023/08/19 12:44:20;;;;;;;3.13;2.90;;;;;;;34.03;36.84;157318.47;10630871;27;20035;-73
2023/08/19 12:49:22;;;;;;;3.03;2.83;;;;;;;34.18;37.26;157357.81;10630174;27;20042;-74
2023/08/19 12:54:23;;;;;;;3.25;2.80;;;;;;;33.95;37.87;157297.44;10611565;27;20097;-73
2023/08/19 12:59:25;;;;;;;3.25;2.92;;;;;;;33.38;37.23;157151.94;10633515;27;20080;-72
2023/08/19 13:04:29;;;;;;;4.32;3.03;;;;;;;33.44;39.12;157167.75;10639681;27;20034;-73
2023/08/19 13:09:32;;;;;;;3.53;3.30;;;;;;;33.85;37.19;157272.56;10639336;27;20114;-74
2023/08/19 13:14:35;;;;;;;3.17;2.97;;;;;;;34.34;37.07;157398.44;10618721;27;20490;-74
2023/08/19 13:19:37;;;;;;;3.72;3.08;;;;;;;34.69;36.35;157488.94;10616883;27;20465;-74
2023/08/19 13:24:39;;;;;;;3.30;3.10;;;;;;;34.93;35.15;157549.22;10633892;27;20036;-74
2023/08/19 13:29:41;;;;;;;3.08;2.88;;;;;;;34.60;35.61;157466.63;10613186;27;20047;-74
2023/08/19 13:34:44;;;;;;;3.30;3.00;;;;;;;34.65;35.96;157478.44;10630220;27;20035;-74
2023/08/19 13:39:46;;;;;;;3.60;3.20;;;;;;;34.43;36.07;157420.72;10633116;27;20401;-73
2023/08/19 13:44:48;;;;;;;3.38;3.08;;;;;;;34.18;36.02;157356.47;10629507;27;20043;-74
2023/08/19 13:49:50;;;;;;;2.92;2.72;;;;;;;33.88;36.46;157280.44;10630213;27;20047;-73
2023/08/19 13:54:52;;;;;;;2.90;2.70;;;;;;;33.26;39.72;157120.53;10632662;27;20045;-74
2023/08/19 13:59:54;;;;;;;3.83;3.53;;;;;;;33.15;37.90;157094.31;10630400;27;20043;-73
2023/08/19 14:04:56;;;;;;;3.10;2.90;;;;;;;33.16;37.56;157095.66;10631633;27;20050;-75
2023/08/19 14:09:58;;;;;;;4.07;3.72;;;;;;;32.67;38.69;156968.53;10634204;27;20114;-74
2023/08/19 14:15:00;;;;;;;3.80;3.00;;;;;;;32.40;40.91;156900.44;10634028;27;20043;-74
2023/08/19 14:20:03;;;;;;;3.03;2.83;;;;;;;32.68;38.17;156971.19;10632408;27;20097;-73
2023/08/19 14:25:11;;;;;;;2.90;2.70;;;;;;;32.78;39.71;156998.66;10631616;27;20071;-73
2023/08/19 14:30:16;;;;;;;5.93;3.00;;;;;;;32.92;38.41;157034.06;10633585;27;20067;-73
2023/08/19 14:35:18;;;;;;;2.88;2.67;;;;;;;33.18;39.72;157099.56;10630057;27;20059;-73
2023/08/19 14:40:23;;;;;;;3.00;2.80;;;;;;;33.39;38.35;157155.91;10645713;27;20049;-74
2023/08/19 14:45:26;;;;;;;3.20;3.00;;;;;;;33.36;37.78;157148.03;10672934;27;20061;-74
2023/08/19 14:50:28;;;;;;;3.17;2.95;;;;;;;33.20;37.97;157104.78;10657052;27;20043;-73
2023/08/19 14:55:31;;;;;;;3.35;3.15;;;;;;;32.84;38.99;157013.06;10656983;27;20144;-74
2023/08/19 15:00:33;;;;;;;3.67;3.47;;;;;;;32.87;38.18;157020.94;10676104;27;20060;-74
2023/08/19 15:05:37;;;;;;;3.65;3.33;;;;;;;32.90;38.80;157030.09;10674769;27;20042;-73
2023/08/19 15:10:39;;;;;;;9.80;3.57;;;;;;;32.61;39.26;156954.13;10673395;27;20095;-74
2023/08/19 15:15:41;;;;;;;3.25;3.05;;;;;;;32.78;39.58;156997.38;10681657;27;20034;-74
2023/08/19 15:20:45;;;;;;;3.72;3.45;;;;;;;32.78;38.96;156997.38;10662356;27;20049;-75
2023/08/19 15:25:48;;;;;;;3.40;3.20;;;;;;;32.79;38.73;157001.28;10666563;27;20126;-74
2023/08/19 15:30:52;;;;;;;3.72;3.47;;;;;;;32.61;38.65;156955.44;10682483;27;20046;-75
2023/08/19 15:35:54;;;;;;;3.53;3.22;;;;;;;32.55;39.36;156939.75;10681214;27;20058;-74
2023/08/19 15:40:57;;;;;;;3.60;3.40;;;;;;;32.52;38.73;156930.56;10639495;27;20118;-76
2023/08/19 15:45:59;;;;;;;2.90;2.70;;;;;;;32.43;38.35;156907.00;10638249;27;20031;-74
2023/08/19 15:51:01;;;;;;;3.20;3.00;;;;;;;32.25;39.23;156861.13;10618466;27;20122;-74
2023/08/19 15:56:06;;;;;;;3.35;3.15;;;;;;;32.36;38.80;156889.91;10634885;27;20047;-74
2023/08/19 16:01:08;;;;;;;3.60;3.40;;;;;;;32.22;40.11;156853.25;10638797;27;20055;-74
2023/08/19 16:06:10;;;;;;;3.42;3.22;;;;;;;31.93;41.13;156779.97;10637724;27;20549;-74
2023/08/19 16:11:12;;;;;;;4.22;4.03;;;;;;;31.89;41.07;156769.47;10616514;27;20485;-74
2023/08/19 16:16:15;;;;;;;3.95;3.70;;;;;;;31.73;41.10;156727.53;10635487;27;20126;-74
2023/08/19 16:21:17;;;;;;;3.30;3.10;;;;;;;31.71;41.44;156723.63;10617975;27;20413;-74
2023/08/19 16:26:20;;;;;;;3.33;3.13;;;;;;;31.55;41.24;156681.72;10617613;27;20039;-75
2023/08/19 16:31:25;;;;;;;3.75;3.50;;;;;;;31.54;41.57;156680.41;10634982;27;20043;-74
2023/08/19 16:36:27;;;;;;;3.55;3.25;;;;;;;31.46;40.14;156659.47;10632612;27;20046;-75
2023/08/19 16:41:29;;;;;;;3.05;2.85;;;;;;;31.46;40.63;156659.47;10617503;27;20404;-74
2023/08/19 16:46:31;;;;;;;4.03;3.25;;;;;;;31.34;40.90;156629.41;10635165;27;20047;-74
2023/08/19 16:51:33;;;;;;;3.67;3.38;;;;;;;31.34;40.96;156628.03;10632870;27;20066;-74
2023/08/19 16:56:35;;;;;;;4.65;4.35;;;;;;;31.49;40.51;156667.34;10635165;27;20047;-74
2023/08/19 17:01:39;;;;;;;5.23;4.83;;;;;;;31.25;41.02;156604.44;10633600;27;20043;-73
2023/08/19 17:06:41;;;;;;;4.30;4.00;;;;;;;31.14;42.10;156578.28;10633472;27;20134;-73
2023/08/19 17:11:44;;;;;;;3.42;3.20;;;;;;;31.29;40.75;156614.97;10635496;27;20046;-73
2023/08/19 17:16:46;;;;;;;4.18;3.60;;;;;;;31.01;42.15;156542.97;10635483;27;20039;-74
2023/08/19 17:21:49;;;;;;;4.95;4.65;;;;;;;30.83;45.47;156498.47;10637065;27;20047;-74
2023/08/19 17:26:51;;;;;;;6.90;6.50;;;;;;;30.66;47.59;156453.94;10620593;27;20031;-73
2023/08/19 17:31:53;;;;;;;8.52;7.85;;;;;;;30.51;50.87;156416.00;10634629;27;20484;-74
2023/08/19 17:36:55;;;;;;;15.40;14.20;;;;;;;30.36;52.05;156378.06;10628605;27;20084;-74
2023/08/19 17:41:57;;;;;;;30.05;27.73;;;;;;;30.12;53.48;156316.53;10610885;27;20138;-73
2023/08/19 17:46:59;;;;;;;15.32;14.30;;;;;;;29.86;54.79;156249.84;10613400;27;20043;-74
2023/08/19 17:52:02;;;;;;;17.77;16.60;;;;;;;29.69;55.50;156204.09;10632537;27;20051;-74
2023/08/19 17:57:04;;;;;;;17.52;16.13;;;;;;;29.66;54.96;156197.53;10630839;27;20049;-73
2023/08/19 18:02:07;;;;;;;13.95;12.85;;;;;;;29.47;54.88;156149.13;10631149;27;20065;-74
2023/08/19 18:07:09;;;;;;;10.57;9.70;;;;;;;29.11;55.72;156057.59;10630826;27;20039;-74
2023/08/19 18:12:11;;;;;;;7.90;7.30;;;;;;;28.93;57.20;156010.50;10630007;27;20046;-74
2023/08/19 18:17:13;;;;;;;6.45;6.03;;;;;;;28.85;58.14;155989.59;10630537;27;20127;-75
2023/08/19 18:22:16;;;;;;;6.22;5.68;;;;;;;28.64;58.18;155937.34;10612137;27;20080;-74
2023/08/19 18:27:19;;;;;;;6.43;5.93;;;;;;;28.59;59.45;155922.94;10613441;27;20057;-75
2023/08/19 18:32:21;;;;;;;8.27;5.70;;;;;;;28.45;60.59;155887.66;10611059;27;20457;-74
2023/08/19 18:37:23;;;;;;;6.72;6.13;;;;;;;28.44;59.50;155885.06;10628208;27;20031;-74
2023/08/19 18:42:24;;;;;;;5.65;5.20;;;;;;;28.26;60.84;155839.28;10607018;27;20096;-74
2023/08/19 18:47:27;;;;;;;6.38;5.80;;;;;;;28.01;61.27;155773.97;10629037;27;20069;-74
2023/08/19 18:52:29;;;;;;;5.97;5.43;;;;;;;28.19;59.35;155820.97;10629546;28;20043;-75
2023/08/19 18:57:31;;;;;;;6.75;6.22;;;;;;;28.11;59.00;155800.06;10628092;28;20065;-76
2023/08/19 19:02:33;;;;;;;7.45;6.13;;;;;;;27.80;61.63;155720.38;10633105;28;20043;-75
2023/08/19 19:07:36;;;;;;;7.25;6.70;;;;;;;27.59;62.41;155668.13;10637070;28;20043;-73
2023/08/19 19:12:39;;;;;;;8.38;7.68;;;;;;;27.54;62.82;155655.06;10618723;28;20438;-74
2023/08/19 19:18:01;;;;;;;7.50;7.00;;;;;;;27.21;64.31;155568.88;10637661;28;20039;-73
2023/08/19 19:23:04;;;;;;;7.43;6.93;;;;;;;27.16;65.25;155557.13;10613035;28;20043;-73
2023/08/19 19:28:06;;;;;;;7.65;7.05;;;;;;;26.95;65.97;155502.25;10638021;28;20043;-73
2023/08/19 19:33:20;;;;;;;7.68;7.07;;;;;;;26.77;66.36;155457.84;10641594;28;20047;-72
2023/08/19 19:38:22;;;;;;;6.28;5.80;;;;;;;26.67;66.53;155431.75;10638476;28;20043;-73
2023/08/19 19:43:24;;;;;;;6.82;6.22;;;;;;;26.60;66.50;155413.47;10639270;28;20051;-73
2023/08/19 19:48:30;;;;;;;5.88;5.43;;;;;;;26.38;67.56;155358.59;10619585;28;20042;-72
2023/08/19 19:53:34;;;;;;;6.43;6.00;;;;;;;26.24;67.88;155320.75;10621384;28;20104;-73
2023/08/19 19:58:36;;;;;;;6.50;5.95;;;;;;;26.11;68.10;155289.44;10636813;27;20046;-73
2023/08/19 20:03:39;;;;;;;6.78;6.32;;;;;;;26.05;68.74;155273.78;10643460;27;20043;-72
2023/08/19 20:08:41;;;;;;;7.68;6.90;;;;;;;26.02;68.71;155264.66;10638916;27;20084;-72
2023/08/19 20:13:43;;;;;;;6.95;6.45;;;;;;;25.90;69.26;155234.69;10640073;27;20088;-73
2023/08/19 20:18:46;;;;;;;6.57;6.07;;;;;;;25.85;69.90;155221.59;10645297;27;20043;-73
2023/08/19 20:23:49;;;;;;;8.32;7.60;;;;;;;25.81;70.43;155211.16;10646473;27;20043;-73
2023/08/19 20:28:51;;;;;;;8.13;7.38;;;;;;;25.78;71.11;155204.66;10641235;27;20066;-72
2023/08/19 20:33:53;;;;;;;7.93;7.22;;;;;;;25.63;71.77;155166.78;10637090;27;20060;-72
2023/08/19 20:38:56;;;;;;;7.95;7.35;;;;;;;25.54;72.21;155143.25;10640060;27;20035;-73
2023/08/19 20:44:14;;;;;;;8.40;7.82;;;;;;;25.48;72.41;155127.63;10639137;27;20070;-72
2023/08/19 20:49:16;;;;;;;8.68;7.97;;;;;;;25.42;72.76;155113.28;10638983;27;20039;-74
2023/08/19 20:54:18;;;;;;;8.93;8.10;;;;;;;25.38;73.14;155102.84;10634274;27;20118;-72
2023/08/19 20:59:20;;;;;;;9.15;8.45;;;;;;;25.31;73.86;155083.28;10629677;27;20041;-72
2023/08/19 21:04:22;;;;;;;7.55;6.95;;;;;;;25.25;74.11;155067.66;10628851;27;20047;-72
2023/08/19 21:09:24;;;;;;;7.68;7.07;;;;;;;25.23;73.14;155062.41;10610785;27;20035;-73
2023/08/19 21:14:28;;;;;;;8.00;7.47;;;;;;;25.23;72.25;155062.41;10628926;27;20039;-73
2023/08/19 21:19:30;;;;;;;8.88;8.18;;;;;;;25.16;73.53;155045.47;10628492;27;20074;-73
2023/08/19 21:24:31;;;;;;;8.80;8.20;;;;;;;25.14;73.74;155040.25;10628119;27;20047;-72
2023/08/19 21:29:33;;;;;;;8.07;7.47;;;;;;;25.20;73.57;155054.63;10627022;27;20041;-73
2023/08/19 21:34:35;;;;;;;9.18;8.52;;;;;;;25.01;73.92;155006.28;10626864;27;20146;-73
2023/08/19 21:39:37;;;;;;;7.78;7.35;;;;;;;24.91;73.78;154982.81;10627104;27;20039;-73
2023/08/19 21:44:38;;;;;;;7.90;7.30;;;;;;;24.91;73.75;154981.50;10626968;27;20053;-73
2023/08/19 21:49:42;;;;;;;7.72;7.20;;;;;;;24.86;73.97;154969.78;10626510;27;20122;-73
2023/08/19 21:54:44;;;;;;;7.05;6.57;;;;;;;24.80;74.81;154952.84;10626406;27;20086;-73
2023/08/19 21:59:47;;;;;;;7.68;7.18;;;;;;;24.67;75.25;154921.56;10607896;27;20042;-72
2023/08/19 22:04:49;;;;;;;8.13;7.53;;;;;;;24.59;76.12;154899.38;10626354;27;20039;-73
2023/08/19 22:09:50;;;;;;;8.98;8.18;;;;;;;24.58;77.28;154896.78;10625908;27;20060;-73
2023/08/19 22:14:52;;;;;;;7.97;7.47;;;;;;;24.52;77.32;154881.13;10607424;27;20059;-73
2023/08/19 22:19:54;;;;;;;8.13;7.63;;;;;;;24.38;78.33;154847.22;10625549;27;20089;-73
2023/08/19 22:24:56;;;;;;;8.68;8.02;;;;;;;24.39;77.83;154848.53;10624915;27;20049;-72
2023/08/19 22:29:57;;;;;;;8.15;7.55;;;;;;;24.45;78.88;154864.19;10624867;27;20046;-72
2023/08/19 22:35:00;;;;;;;13.32;7.95;;;;;;;24.32;77.61;154831.56;10606547;27;20039;-73
2023/08/19 22:40:03;;;;;;;7.60;7.00;;;;;;;24.29;75.00;154823.72;10624823;27;20130;-73
2023/08/19 22:45:05;;;;;;;7.20;6.70;;;;;;;24.36;73.36;154840.69;10624891;27;20043;-73
2023/08/19 22:50:07;;;;;;;6.90;6.38;;;;;;;24.27;73.50;154817.22;10606909;28;20047;-73
2023/08/19 22:55:09;;;;;;;6.78;6.22;;;;;;;24.42;72.67;154856.38;10625329;28;20039;-73
2023/08/19 23:00:11;;;;;;;6.53;6.07;;;;;;;24.08;75.06;154768.97;10614849;28;20489;-73
2023/08/19 23:05:13;;;;;;;7.30;6.68;;;;;;;24.17;74.96;154792.44;10605668;28;20039;-73